Time;durP1;ratioP1;P1;durP2;ratioP2;P2;SDS_P1;SDS_P2;PMS_P1;PMS_P2;Temp;Humidity;BMP_temperature;BMP_pressure;BME280_temperature;BME280_humidity;BME280_pressure;Samples;Min_cycle;Max_cycle;Signal;HPM_P1;HPM_P2
2022/02/27 00:00:53;;;;;;;2.13;0.47;;;8.80;92.50;;;;;;4985774;28;20085;-77
2022/02/27 00:03:21;;;;;;;0.98;0.40;;;8.70;92.90;;;;;;4987328;28;20373;-77
2022/02/27 00:05:50;;;;;;;1.02;0.40;;;8.80;93.00;;;;;;4988895;28;20046;-77
2022/02/27 00:08:20;;;;;;;1.45;0.55;;;8.80;92.30;;;;;;4986435;28;20073;-77
2022/02/27 00:10:48;;;;;;;2.25;0.35;;;8.80;92.30;;;;;;4988679;28;20504;-77
2022/02/27 00:13:17;;;;;;;4.95;0.60;;;8.70;93.10;;;;;;4985814;28;20574;-77
2022/02/27 00:15:46;;;;;;;2.20;0.50;;;8.80;92.80;;;;;;4988453;28;20096;-77
2022/02/27 00:18:14;;;;;;;2.35;0.50;;;8.70;93.30;;;;;;4984777;28;20120;-77
2022/02/27 00:20:44;;;;;;;2.63;0.30;;;8.70;93.20;;;;;;4987038;28;20046;-77
2022/02/27 00:23:14;;;;;;;2.15;0.60;;;8.80;92.60;;;;;;4982685;28;20049;-77
2022/02/27 00:25:44;;;;;;;1.95;0.73;;;8.80;92.20;;;;;;4987830;28;20038;-77
2022/02/27 00:28:16;;;;;;;4.68;0.95;;;8.80;92.70;;;;;;4994818;28;20397;-77
2022/02/27 00:30:45;;;;;;;1.98;0.47;;;8.70;92.50;;;;;;4981704;28;20516;-77
2022/02/27 00:33:13;;;;;;;2.95;0.50;;;8.70;92.60;;;;;;4984560;28;20050;-77
2022/02/27 00:35:41;;;;;;;1.52;0.47;;;8.70;92.50;;;;;;4989167;28;20085;-77
2022/02/27 00:38:10;;;;;;;3.75;0.43;;;8.70;92.50;;;;;;4973539;28;20365;-77
2022/02/27 00:40:38;;;;;;;1.85;0.38;;;8.70;91.70;;;;;;4993762;28;20047;-77
2022/02/27 00:43:08;;;;;;;2.45;0.40;;;8.70;92.00;;;;;;4998882;28;20050;-77
2022/02/27 00:45:37;;;;;;;1.48;0.30;;;8.70;92.60;;;;;;4983499;28;20038;-77
2022/02/27 00:48:07;;;;;;;0.75;0.28;;;8.60;92.40;;;;;;4987126;28;20571;-77
2022/02/27 00:50:35;;;;;;;1.70;0.25;;;8.60;92.40;;;;;;4980974;28;20149;-77
2022/02/27 00:53:06;;;;;;;3.35;0.80;;;8.60;91.90;;;;;;4981059;28;20052;-77
2022/02/27 00:55:35;;;;;;;2.47;0.50;;;8.60;91.90;;;;;;4985321;28;20579;-77
2022/02/27 00:58:03;;;;;;;0.35;0.15;;;8.60;91.70;;;;;;4970122;28;20456;-77
2022/02/27 01:00:33;;;;;;;2.30;0.20;;;8.60;92.10;;;;;;4985245;28;20041;-77
2022/02/27 01:03:02;;;;;;;1.20;0.20;;;8.70;92.50;;;;;;4982843;28;20055;-77
2022/02/27 01:05:31;;;;;;;1.92;0.28;;;8.70;92.80;;;;;;4983692;28;20135;-77
2022/02/27 01:08:00;;;;;;;2.70;0.40;;;8.60;93.10;;;;;;4997612;28;20046;-77
2022/02/27 01:10:29;;;;;;;1.75;0.45;;;8.60;93.20;;;;;;4987754;28;20048;-76
2022/02/27 01:12:58;;;;;;;0.77;0.20;;;8.60;93.80;;;;;;4987764;28;20586;-77
2022/02/27 01:15:27;;;;;;;1.83;0.50;;;8.60;94.10;;;;;;4964374;28;20133;-77
2022/02/27 01:17:59;;;;;;;1.98;0.45;;;8.50;94.50;;;;;;4995825;28;20050;-76
2022/02/27 01:20:27;;;;;;;2.40;0.40;;;8.60;94.20;;;;;;4994858;28;20523;-77
2022/02/27 01:22:57;;;;;;;1.20;0.30;;;8.50;94.80;;;;;;4977538;28;20056;-77
2022/02/27 01:25:26;;;;;;;1.17;0.20;;;8.50;94.90;;;;;;4981698;28;20034;-77
2022/02/27 01:27:55;;;;;;;1.73;0.50;;;8.50;94.80;;;;;;4981470;28;20345;-77
2022/02/27 01:30:23;;;;;;;1.23;0.40;;;8.50;95.20;;;;;;4983221;28;20042;-77
2022/02/27 01:32:52;;;;;;;1.58;0.50;;;8.50;95.90;;;;;;4983787;28;20042;-77
2022/02/27 01:35:25;;;;;;;1.65;0.40;;;8.50;95.90;;;;;;4986550;28;20050;-77
2022/02/27 01:37:53;;;;;;;2.05;0.40;;;8.50;95.00;;;;;;4984242;28;20050;-77
2022/02/27 01:40:23;;;;;;;2.08;0.40;;;8.50;94.50;;;;;;4984621;28;20555;-77
2022/02/27 01:42:52;;;;;;;2.35;0.30;;;8.50;94.10;;;;;;4989330;28;20153;-77
2022/02/27 01:45:22;;;;;;;1.95;0.55;;;8.50;94.50;;;;;;4982832;28;20042;-77
2022/02/27 01:47:50;;;;;;;1.13;0.35;;;8.50;94.20;;;;;;4998442;28;20042;-77
2022/02/27 01:50:19;;;;;;;1.10;0.28;;;8.50;94.60;;;;;;4998377;28;20102;-77
2022/02/27 01:52:49;;;;;;;2.85;0.52;;;8.40;94.10;;;;;;4997345;28;20050;-77
2022/02/27 01:55:17;;;;;;;1.42;0.30;;;8.40;93.50;;;;;;4997532;28;20395;-77
2022/02/27 01:57:46;;;;;;;1.38;0.32;;;8.40;93.80;;;;;;4995809;28;20194;-77
2022/02/27 02:00:16;;;;;;;3.55;0.30;;;8.30;93.60;;;;;;4981272;28;20504;-77
2022/02/27 02:02:45;;;;;;;1.65;0.30;;;8.30;93.40;;;;;;4994254;28;20053;-77
2022/02/27 02:05:15;;;;;;;1.42;0.40;;;8.40;93.50;;;;;;4979460;28;20057;-77
2022/02/27 02:07:48;;;;;;;2.15;0.50;;;8.40;93.00;;;;;;4983338;28;20476;-77
2022/02/27 02:10:19;;;;;;;0.98;0.20;;;8.40;93.10;;;;;;4986400;28;20031;-77
2022/02/27 02:12:55;;;;;;;1.83;0.32;;;8.40;93.00;;;;;;4983198;28;20054;-77
2022/02/27 02:15:24;;;;;;;0.98;0.30;;;8.40;92.70;;;;;;4970025;28;20411;-77
2022/02/27 02:17:52;;;;;;;1.83;0.30;;;8.40;92.30;;;;;;4979135;28;20053;-76
2022/02/27 02:20:23;;;;;;;0.90;0.20;;;8.40;92.30;;;;;;4985985;28;20540;-77
2022/02/27 02:22:55;;;;;;;1.40;0.30;;;8.40;92.40;;;;;;4979664;28;20054;-77
2022/02/27 02:25:23;;;;;;;1.70;0.47;;;8.40;92.80;;;;;;4989254;28;20381;-77
2022/02/27 02:27:53;;;;;;;2.00;0.40;;;8.40;93.00;;;;;;4967446;28;20042;-77
2022/02/27 02:30:22;;;;;;;1.67;0.60;;;8.40;93.00;;;;;;4996173;28;20046;-77
2022/02/27 02:32:54;;;;;;;1.48;0.50;;;8.40;93.30;;;;;;4982278;28;20038;-77
2022/02/27 02:35:27;;;;;;;3.78;0.40;;;8.30;93.50;;;;;;4987030;28;20130;-77
2022/02/27 02:37:56;;;;;;;1.15;0.38;;;8.30;93.70;;;;;;4999736;28;20046;-77
2022/02/27 02:40:26;;;;;;;2.22;0.65;;;8.20;93.90;;;;;;4987417;28;20053;-77
2022/02/27 02:42:58;;;;;;;0.70;0.20;;;8.20;93.80;;;;;;4987776;28;20050;-76
2022/02/27 02:45:27;;;;;;;1.00;0.30;;;8.20;93.90;;;;;;5000151;28;20496;-77
2022/02/27 02:47:58;;;;;;;1.38;0.30;;;8.20;93.70;;;;;;4984034;28;20542;-77
2022/02/27 02:50:31;;;;;;;0.98;0.40;;;8.20;93.60;;;;;;4998770;28;20108;-77
2022/02/27 02:53:00;;;;;;;1.63;0.20;;;8.20;93.90;;;;;;4986870;28;20220;-76
2022/02/27 02:55:29;;;;;;;1.52;0.40;;;8.10;94.00;;;;;;5000681;28;20145;-77
2022/02/27 02:57:59;;;;;;;1.58;0.30;;;8.10;94.10;;;;;;5000567;28;20047;-77
2022/02/27 03:00:28;;;;;;;1.55;0.50;;;8.10;94.20;;;;;;4986008;28;20122;-77
2022/02/27 03:02:57;;;;;;;2.00;0.30;;;8.10;94.40;;;;;;4982274;28;20136;-77
2022/02/27 03:05:25;;;;;;;1.02;0.20;;;8.00;94.40;;;;;;4963700;28;20034;-77
2022/02/27 03:07:56;;;;;;;1.95;0.30;;;8.00;93.90;;;;;;4985876;28;21448;-76
2022/02/27 03:10:24;;;;;;;2.13;0.55;;;7.90;94.10;;;;;;4999954;28;20072;-77
2022/02/27 03:12:52;;;;;;;1.75;0.38;;;7.90;94.40;;;;;;4988466;28;20069;-77
2022/02/27 03:15:20;;;;;;;2.30;0.40;;;7.90;94.50;;;;;;5000648;28;20073;-76
2022/02/27 03:17:48;;;;;;;1.45;0.40;;;8.00;94.10;;;;;;5001145;28;20105;-76
2022/02/27 03:20:16;;;;;;;1.52;0.50;;;8.00;94.30;;;;;;5001002;28;20065;-76
2022/02/27 03:22:44;;;;;;;1.50;0.20;;;8.00;94.30;;;;;;4988174;28;20050;-76
2022/02/27 03:25:13;;;;;;;1.17;0.50;;;8.10;94.40;;;;;;4985751;28;20504;-76
2022/02/27 03:27:41;;;;;;;2.50;0.60;;;8.00;94.50;;;;;;5001774;28;20034;-76
2022/02/27 03:30:10;;;;;;;0.95;0.32;;;8.00;94.90;;;;;;4988741;28;20047;-76
2022/02/27 03:32:38;;;;;;;1.05;0.40;;;8.00;95.00;;;;;;4990450;28;20038;-76
2022/02/27 03:35:06;;;;;;;1.65;0.38;;;8.00;95.20;;;;;;4981613;28;20146;-76
2022/02/27 03:37:34;;;;;;;2.95;0.68;;;7.90;95.60;;;;;;4982546;28;20314;-76
2022/02/27 03:40:03;;;;;;;2.40;0.55;;;7.90;95.50;;;;;;4997288;28;20038;-76
2022/02/27 03:42:33;;;;;;;0.80;0.40;;;7.90;94.70;;;;;;4990439;28;20133;-76
2022/02/27 03:45:01;;;;;;;1.35;0.40;;;7.90;94.80;;;;;;4980076;28;20058;-76
2022/02/27 03:47:29;;;;;;;3.30;0.55;;;7.90;95.00;;;;;;4988066;28;20132;-76
2022/02/27 03:49:57;;;;;;;1.83;0.30;;;7.80;95.10;;;;;;4978860;28;20035;-76
2022/02/27 03:52:25;;;;;;;0.98;0.40;;;7.80;95.10;;;;;;5001175;28;20042;-76
2022/02/27 03:54:54;;;;;;;3.03;0.50;;;7.70;95.20;;;;;;4989985;28;20101;-76
2022/02/27 03:57:21;;;;;;;1.67;0.38;;;7.70;95.70;;;;;;4986722;28;20038;-76
2022/02/27 03:59:51;;;;;;;0.43;0.20;;;7.70;95.80;;;;;;4984923;28;20081;-76
2022/02/27 04:02:20;;;;;;;1.00;0.40;;;7.60;96.20;;;;;;4995596;28;20121;-76
2022/02/27 04:04:48;;;;;;;1.88;0.40;;;7.70;96.60;;;;;;4987755;28;20129;-76
2022/02/27 04:07:16;;;;;;;1.17;0.30;;;7.70;96.60;;;;;;4983846;28;20055;-76
2022/02/27 04:09:44;;;;;;;0.75;0.35;;;7.70;96.70;;;;;;4998767;28;20547;-76
2022/02/27 04:12:12;;;;;;;1.17;0.40;;;7.70;96.70;;;;;;4987931;28;20046;-76
2022/02/27 04:14:40;;;;;;;0.75;0.30;;;7.70;96.70;;;;;;4979834;28;20412;-76
2022/02/27 04:17:10;;;;;;;1.55;0.47;;;7.70;96.70;;;;;;4984823;28;20315;-76
2022/02/27 04:19:38;;;;;;;1.05;0.30;;;7.70;96.70;;;;;;4987645;28;20097;-76
2022/02/27 04:22:06;;;;;;;1.70;0.80;;;7.70;96.70;;;;;;4989759;28;20050;-76
2022/02/27 04:24:34;;;;;;;1.92;0.45;;;7.60;96.70;;;;;;4994140;28;20507;-76
2022/02/27 04:27:02;;;;;;;1.23;0.50;;;7.60;96.70;;;;;;4982575;28;20109;-76
2022/02/27 04:29:30;;;;;;;0.90;0.40;;;7.70;96.70;;;;;;4985998;28;20042;-76
2022/02/27 04:31:58;;;;;;;1.13;0.55;;;7.70;96.70;;;;;;4990459;28;20452;-76
2022/02/27 04:34:29;;;;;;;1.35;0.40;;;7.70;96.70;;;;;;4984801;28;20384;-76
2022/02/27 04:36:58;;;;;;;1.58;0.50;;;7.70;96.70;;;;;;4987266;28;20585;-76
2022/02/27 04:39:26;;;;;;;1.33;0.60;;;7.70;96.70;;;;;;4988241;28;20042;-77
2022/02/27 04:41:54;;;;;;;1.20;0.50;;;7.80;96.70;;;;;;4987513;28;20050;-76
2022/02/27 04:44:22;;;;;;;2.08;0.50;;;7.80;96.70;;;;;;4996620;28;20416;-76
2022/02/27 04:46:50;;;;;;;1.77;0.65;;;7.80;96.70;;;;;;4981076;28;20057;-77
2022/02/27 04:49:18;;;;;;;2.38;0.45;;;7.70;96.70;;;;;;4998008;28;20046;-76
2022/02/27 04:51:47;;;;;;;5.75;1.15;;;7.70;96.70;;;;;;4998413;28;20100;-76
2022/02/27 04:54:15;;;;;;;1.20;0.50;;;7.80;96.70;;;;;;4985856;28;20046;-76
2022/02/27 04:56:43;;;;;;;2.42;0.68;;;7.80;96.70;;;;;;4984537;28;20464;-76
2022/02/27 04:59:11;;;;;;;2.08;0.47;;;7.80;96.70;;;;;;4999419;28;20503;-76
2022/02/27 05:01:39;;;;;;;3.42;0.90;;;7.80;96.70;;;;;;4979426;28;20081;-76
2022/02/27 05:04:08;;;;;;;1.50;0.55;;;7.80;96.70;;;;;;4996384;28;20262;-76
2022/02/27 05:06:38;;;;;;;2.25;0.45;;;7.80;96.70;;;;;;4990152;28;20108;-76
2022/02/27 05:09:07;;;;;;;1.67;0.40;;;7.80;96.70;;;;;;4990370;28;20446;-76
2022/02/27 05:11:35;;;;;;;2.83;0.80;;;7.80;96.70;;;;;;4983320;28;20046;-76
2022/02/27 05:14:03;;;;;;;1.33;0.50;;;7.90;96.70;;;;;;5000855;28;20046;-76
2022/02/27 05:16:31;;;;;;;3.88;0.60;;;7.80;96.70;;;;;;4981888;28;20039;-76
2022/02/27 05:18:59;;;;;;;1.70;0.60;;;7.90;96.70;;;;;;4986775;28;20092;-76
2022/02/27 05:21:27;;;;;;;1.77;0.65;;;7.90;96.70;;;;;;4986580;28;20084;-76
2022/02/27 05:23:55;;;;;;;1.83;0.50;;;7.80;96.70;;;;;;4985101;28;20390;-76
2022/02/27 05:26:25;;;;;;;3.10;0.95;;;7.90;96.70;;;;;;4983839;28;20519;-76
2022/02/27 05:28:53;;;;;;;1.10;0.50;;;7.90;96.70;;;;;;4981420;28;20050;-76
2022/02/27 05:31:21;;;;;;;1.75;0.35;;;7.90;96.70;;;;;;4984368;28;20035;-76
2022/02/27 05:33:49;;;;;;;1.75;0.43;;;7.90;96.70;;;;;;4997664;28;20038;-75
2022/02/27 05:36:19;;;;;;;1.70;0.38;;;7.80;96.70;;;;;;4998672;28;20047;-76
2022/02/27 05:38:47;;;;;;;1.92;0.52;;;7.80;96.70;;;;;;4983203;28;20042;-76
2022/02/27 05:41:15;;;;;;;3.10;0.65;;;7.80;96.70;;;;;;4985155;28;20042;-76
2022/02/27 05:43:45;;;;;;;2.00;0.60;;;7.80;96.70;;;;;;4983829;28;20569;-76
2022/02/27 05:46:13;;;;;;;4.18;0.70;;;7.80;96.70;;;;;;4984028;28;20034;-76
2022/02/27 05:48:41;;;;;;;2.55;0.50;;;7.80;96.70;;;;;;4986788;28;20057;-76
2022/02/27 05:51:09;;;;;;;2.20;0.50;;;7.70;96.70;;;;;;4984197;28;20046;-76
2022/02/27 05:53:37;;;;;;;1.45;0.30;;;7.70;96.70;;;;;;4986675;28;20034;-76
2022/02/27 05:56:05;;;;;;;2.65;0.77;;;7.70;96.70;;;;;;4983817;28;20047;-76
2022/02/27 05:58:36;;;;;;;2.58;0.75;;;7.70;96.70;;;;;;4986403;28;20075;-76
2022/02/27 06:01:06;;;;;;;2.13;0.63;;;7.70;96.70;;;;;;4997925;28;20053;-76
2022/02/27 06:03:34;;;;;;;1.55;0.75;;;7.70;96.70;;;;;;4997635;28;20518;-76
2022/02/27 06:06:02;;;;;;;1.40;0.80;;;7.60;96.70;;;;;;4983641;28;20068;-76
2022/02/27 06:08:30;;;;;;;2.13;0.77;;;7.60;96.70;;;;;;4985315;28;20050;-77
2022/02/27 06:10:59;;;;;;;1.60;0.75;;;7.60;96.70;;;;;;4983510;28;20090;-77
2022/02/27 06:13:27;;;;;;;2.83;0.70;;;7.70;96.70;;;;;;4995446;28;20046;-78
2022/02/27 06:15:58;;;;;;;2.22;0.43;;;7.70;96.70;;;;;;4998632;28;20649;-77
2022/02/27 06:18:27;;;;;;;2.90;0.88;;;7.70;96.70;;;;;;4988048;28;20051;-77
2022/02/27 06:20:55;;;;;;;2.03;0.43;;;7.70;96.70;;;;;;4989326;28;20077;-77
2022/02/27 06:23:23;;;;;;;1.95;0.60;;;7.70;96.70;;;;;;4978668;28;20039;-77
2022/02/27 06:25:52;;;;;;;1.38;0.50;;;7.70;96.70;;;;;;4983504;28;20069;-78
2022/02/27 06:28:19;;;;;;;0.88;0.50;;;7.70;96.70;;;;;;4981951;28;20131;-78
2022/02/27 06:30:48;;;;;;;2.40;0.77;;;7.70;96.70;;;;;;4998151;28;20058;-78
2022/02/27 06:33:15;;;;;;;3.38;0.82;;;7.70;96.70;;;;;;4984368;28;20492;-78
2022/02/27 06:35:45;;;;;;;3.13;0.82;;;7.80;96.70;;;;;;4986156;28;20492;-78
2022/02/27 06:38:13;;;;;;;4.00;1.15;;;7.80;96.70;;;;;;4998328;28;20042;-77
2022/02/27 06:40:41;;;;;;;1.98;0.80;;;7.80;96.70;;;;;;4971763;28;20143;-77
2022/02/27 06:43:09;;;;;;;1.98;0.90;;;7.80;96.70;;;;;;4980082;28;20039;-77
2022/02/27 06:45:37;;;;;;;2.47;0.75;;;7.90;96.70;;;;;;4978128;28;20074;-77
2022/02/27 06:48:07;;;;;;;3.85;0.90;;;7.80;96.70;;;;;;4981582;28;20038;-78
2022/02/27 06:50:35;;;;;;;2.67;0.85;;;7.90;96.70;;;;;;4998735;28;20124;-77
2022/02/27 06:53:04;;;;;;;2.47;0.90;;;7.90;96.70;;;;;;4985219;28;20074;-78
2022/02/27 06:55:33;;;;;;;4.10;1.00;;;7.90;96.70;;;;;;4986347;28;20264;-77
2022/02/27 06:58:01;;;;;;;2.92;1.13;;;7.90;96.70;;;;;;4995412;28;20042;-77
2022/02/27 07:00:29;;;;;;;4.97;2.17;;;7.90;96.70;;;;;;4985658;28;20400;-77
2022/02/27 07:02:58;;;;;;;6.57;3.53;;;8.00;96.70;;;;;;4988550;28;20133;-77
2022/02/27 07:05:29;;;;;;;8.25;3.22;;;8.00;96.70;;;;;;4983325;28;20046;-78
2022/02/27 07:07:57;;;;;;;5.25;2.47;;;8.00;96.70;;;;;;4980993;28;20121;-77
2022/02/27 07:10:27;;;;;;;4.45;2.05;;;8.10;96.70;;;;;;4990557;28;20047;-77
2022/02/27 07:12:55;;;;;;;3.28;1.48;;;8.10;96.70;;;;;;4986428;28;20034;-78
2022/02/27 07:15:24;;;;;;;3.30;0.93;;;8.20;96.70;;;;;;4993919;28;20043;-77
2022/02/27 07:17:52;;;;;;;2.17;0.75;;;8.20;96.70;;;;;;4988047;28;20231;-77
2022/02/27 07:20:20;;;;;;;3.58;1.10;;;8.20;96.70;;;;;;4978807;28;20408;-77
2022/02/27 07:22:48;;;;;;;3.20;1.00;;;8.30;96.70;;;;;;4989414;28;20046;-77
2022/02/27 07:25:17;;;;;;;2.35;0.70;;;8.30;96.70;;;;;;4984438;28;20061;-77
2022/02/27 07:27:47;;;;;;;2.83;0.80;;;8.40;96.70;;;;;;4987766;28;20045;-78
2022/02/27 07:30:15;;;;;;;2.72;1.35;;;8.40;96.70;;;;;;4987531;28;20464;-78
2022/02/27 07:32:43;;;;;;;4.60;0.95;;;8.50;96.70;;;;;;5001364;28;20039;-78
2022/02/27 07:35:11;;;;;;;3.28;0.98;;;8.50;96.70;;;;;;4985308;28;20046;-78
2022/02/27 07:37:39;;;;;;;3.90;0.80;;;8.50;96.70;;;;;;4986177;28;20522;-78
2022/02/27 07:40:08;;;;;;;2.10;0.73;;;8.60;96.70;;;;;;4984617;28;20054;-78
2022/02/27 07:42:36;;;;;;;1.88;0.73;;;8.60;96.70;;;;;;4987708;28;20038;-77
2022/02/27 07:45:07;;;;;;;2.55;0.70;;;8.60;96.70;;;;;;4996913;28;20496;-77
2022/02/27 07:47:35;;;;;;;4.70;0.68;;;8.70;96.70;;;;;;4991727;28;20046;-78
2022/02/27 07:50:04;;;;;;;3.13;0.75;;;8.70;96.70;;;;;;4984719;28;20042;-78
2022/02/27 07:52:32;;;;;;;1.00;0.55;;;8.80;96.70;;;;;;4982878;28;20111;-78
2022/02/27 07:55:00;;;;;;;2.95;1.17;;;8.80;96.70;;;;;;4979196;28;20047;-78
2022/02/27 07:57:28;;;;;;;1.60;0.80;;;8.80;96.70;;;;;;4985752;28;20124;-79
2022/02/27 07:59:57;;;;;;;1.63;0.75;;;8.90;96.70;;;;;;4989534;28;20058;-78
2022/02/27 08:02:40;;;;;;;2.15;0.60;;;8.90;96.70;;;;;;4991297;28;20050;-78
2022/02/27 08:05:08;;;;;;;1.33;0.60;;;8.90;96.70;;;;;;4983465;28;20542;-78
2022/02/27 08:07:36;;;;;;;2.00;0.70;;;8.90;96.70;;;;;;4983683;28;20050;-78
2022/02/27 08:10:05;;;;;;;1.50;0.80;;;9.00;96.70;;;;;;4983791;28;20046;-78
2022/02/27 08:12:33;;;;;;;1.50;0.68;;;9.00;96.70;;;;;;4987031;28;20046;-78
2022/02/27 08:15:02;;;;;;;5.80;0.95;;;9.00;96.70;;;;;;4986474;28;20052;-79
2022/02/27 08:17:30;;;;;;;4.07;0.90;;;9.00;96.70;;;;;;4988780;28;20046;-78
2022/02/27 08:19:59;;;;;;;3.40;1.08;;;9.10;96.70;;;;;;4988791;28;20140;-78
2022/02/27 08:22:28;;;;;;;1.98;0.68;;;9.10;96.70;;;;;;4986608;28;20042;-78
2022/02/27 08:24:56;;;;;;;2.45;0.70;;;9.20;96.70;;;;;;4988134;28;20061;-79
2022/02/27 08:27:24;;;;;;;2.40;0.60;;;9.20;96.70;;;;;;4984834;28;20038;-78
2022/02/27 08:29:53;;;;;;;1.90;0.82;;;9.30;96.60;;;;;;4986042;28;20324;-79
2022/02/27 08:32:21;;;;;;;2.55;0.75;;;9.30;96.70;;;;;;4987473;28;20061;-79
2022/02/27 08:34:49;;;;;;;3.80;1.00;;;9.30;96.10;;;;;;4983564;28;20065;-78
2022/02/27 08:37:18;;;;;;;3.00;0.95;;;9.40;96.20;;;;;;4988183;28;20045;-79
2022/02/27 08:39:46;;;;;;;3.83;1.10;;;9.40;95.30;;;;;;5000688;28;20054;-79
2022/02/27 08:42:15;;;;;;;1.98;0.80;;;9.40;94.90;;;;;;4985478;28;20042;-79
2022/02/27 08:44:42;;;;;;;2.33;0.80;;;9.40;94.50;;;;;;4985826;28;20534;-80
2022/02/27 08:47:10;;;;;;;1.27;0.57;;;9.40;94.80;;;;;;4999328;28;20038;-78
2022/02/27 08:49:41;;;;;;;1.63;0.70;;;9.60;95.30;;;;;;5001193;28;20554;-79
2022/02/27 08:52:10;;;;;;;2.88;0.80;;;9.60;95.40;;;;;;4996796;28;20038;-79
2022/02/27 08:54:40;;;;;;;2.88;0.93;;;9.60;94.60;;;;;;5002755;28;20137;-79
2022/02/27 08:57:08;;;;;;;6.22;0.88;;;9.70;94.80;;;;;;4984554;28;20382;-78
2022/02/27 08:59:36;;;;;;;2.10;0.80;;;9.70;94.90;;;;;;4990845;28;20141;-79
2022/02/27 09:02:05;;;;;;;4.72;0.93;;;9.80;95.50;;;;;;4981498;28;20046;-79
2022/02/27 09:04:33;;;;;;;5.03;1.00;;;9.80;94.70;;;;;;4997237;28;20090;-79
2022/02/27 09:07:01;;;;;;;2.53;1.08;;;9.80;94.00;;;;;;4988938;28;20038;-79
2022/02/27 09:09:29;;;;;;;4.28;0.95;;;9.80;93.50;;;;;;4981115;28;20388;-80
2022/02/27 09:11:59;;;;;;;2.90;1.10;;;9.70;92.90;;;;;;4980293;28;20047;-76
2022/02/27 09:14:27;;;;;;;3.15;1.00;;;9.80;93.10;;;;;;4985404;28;20101;-78
2022/02/27 09:16:55;;;;;;;0.75;0.50;;;9.90;93.40;;;;;;4983463;28;20392;-78
2022/02/27 09:19:23;;;;;;;2.67;0.90;;;9.90;92.90;;;;;;4990606;28;20054;-80
2022/02/27 09:21:51;;;;;;;1.23;0.70;;;9.90;92.30;;;;;;4980572;28;20055;-78
2022/02/27 09:24:20;;;;;;;2.70;0.85;;;9.90;92.50;;;;;;4997779;28;20092;-80
2022/02/27 09:26:51;;;;;;;3.55;0.95;;;10.00;92.90;;;;;;4982786;28;20039;-80
2022/02/27 09:29:21;;;;;;;2.22;0.90;;;10.00;92.00;;;;;;4982603;28;20069;-80
2022/02/27 09:31:52;;;;;;;3.33;1.00;;;10.10;92.20;;;;;;4983498;28;20034;-80
2022/02/27 09:34:25;;;;;;;2.47;0.98;;;10.10;91.30;;;;;;4981249;28;20038;-82
2022/02/27 09:36:54;;;;;;;2.97;1.42;;;10.00;91.10;;;;;;4998336;28;20371;-80
2022/02/27 09:39:27;;;;;;;2.70;0.82;;;10.10;90.90;;;;;;4984201;28;20526;-79
2022/02/27 09:41:55;;;;;;;5.40;0.98;;;10.10;90.30;;;;;;4983150;28;20061;-79
2022/02/27 09:44:25;;;;;;;3.72;0.85;;;10.10;90.00;;;;;;4999802;28;20506;-81
2022/02/27 09:46:59;;;;;;;1.50;0.75;;;10.10;89.80;;;;;;4983163;28;20047;-82
2022/02/27 09:49:29;;;;;;;2.20;0.98;;;9.90;90.30;;;;;;4985763;28;20038;-82
2022/02/27 09:51:58;;;;;;;1.45;0.60;;;9.90;90.40;;;;;;4998918;28;20519;-83
2022/02/27 09:54:28;;;;;;;2.47;0.90;;;9.90;90.70;;;;;;4984762;28;20043;-80
2022/02/27 09:56:57;;;;;;;1.73;0.70;;;9.80;91.10;;;;;;4983489;28;20537;-79
2022/02/27 09:59:27;;;;;;;2.42;0.85;;;9.80;91.10;;;;;;4983629;28;20049;-77
2022/02/27 10:01:59;;;;;;;2.30;1.13;;;9.80;90.40;;;;;;4984346;28;20054;-77
2022/02/27 10:04:33;;;;;;;2.33;0.88;;;9.80;89.70;;;;;;4986280;28;20050;-79
2022/02/27 10:07:08;;;;;;;1.98;0.90;;;9.90;90.20;;;;;;4988862;28;20065;-77
2022/02/27 10:09:37;;;;;;;1.70;0.90;;;10.10;90.70;;;;;;4985691;28;20395;-81
2022/02/27 10:12:19;;;;;;;3.75;1.05;;;10.30;90.10;;;;;;4987074;28;20042;-79
2022/02/27 10:15:01;;;;;;;1.33;0.70;;;10.60;89.40;;;;;;4981130;28;20559;-79
2022/02/27 10:17:32;;;;;;;3.65;1.05;;;10.90;88.70;;;;;;4980355;28;20093;-79
2022/02/27 10:20:05;;;;;;;2.10;0.90;;;11.10;88.70;;;;;;4989204;28;20046;-82
2022/02/27 10:22:35;;;;;;;3.08;1.00;;;11.20;89.20;;;;;;4983547;28;20043;-82
2022/02/27 10:25:10;;;;;;;1.75;0.75;;;11.30;88.20;;;;;;5000038;28;20073;-79
2022/02/27 10:27:44;;;;;;;1.67;0.95;;;11.30;88.30;;;;;;4966457;28;20424;-79
2022/02/27 10:30:20;;;;;;;1.85;0.85;;;11.50;88.70;;;;;;4995825;28;20169;-78
2022/02/27 10:32:50;;;;;;;1.98;0.77;;;11.70;88.20;;;;;;5001460;28;20566;-76
2022/02/27 10:35:38;;;;;;;2.70;1.05;;;11.70;87.60;;;;;;4982005;28;20047;-76
2022/02/27 10:38:08;;;;;;;3.08;1.10;;;11.70;87.20;;;;;;4934223;28;20097;-79
2022/02/27 10:40:38;;;;;;;2.05;1.00;;;11.80;87.70;;;;;;4979514;28;20050;-79
2022/02/27 10:43:08;;;;;;;3.20;1.10;;;11.70;87.00;;;;;;4995393;28;20847;-78
2022/02/27 10:45:39;;;;;;;2.70;1.13;;;11.70;87.50;;;;;;4995696;28;20411;-77
2022/02/27 10:48:11;;;;;;;1.65;0.90;;;11.80;88.10;;;;;;4983315;28;20057;-79
2022/02/27 10:50:41;;;;;;;2.03;0.93;;;11.90;86.60;;;;;;4994447;28;20044;-79
2022/02/27 10:53:12;;;;;;;3.42;1.10;;;11.90;86.50;;;;;;4983763;28;20038;-79
2022/02/27 10:55:40;;;;;;;4.05;1.00;;;12.00;87.20;;;;;;4992459;28;20071;-79
2022/02/27 10:58:10;;;;;;;3.40;1.00;;;11.90;86.80;;;;;;4983495;28;20500;-80
2022/02/27 11:00:40;;;;;;;3.97;0.98;;;11.70;86.20;;;;;;4990623;28;20042;-78
2022/02/27 11:03:11;;;;;;;2.97;1.08;;;11.50;86.00;;;;;;4986132;28;20045;-78
2022/02/27 11:05:41;;;;;;;3.85;1.00;;;11.50;86.30;;;;;;5001117;28;20088;-77
2022/02/27 11:08:15;;;;;;;1.27;1.00;;;11.50;85.60;;;;;;4982536;28;20850;-77
2022/02/27 11:10:43;;;;;;;5.15;1.10;;;11.70;86.20;;;;;;4997693;28;20043;-78
2022/02/27 11:13:13;;;;;;;3.35;1.52;;;11.80;87.30;;;;;;5001733;28;20508;-78
2022/02/27 11:15:43;;;;;;;4.88;1.25;;;11.90;86.60;;;;;;4985458;28;20046;-78
2022/02/27 11:18:13;;;;;;;4.20;2.13;;;12.00;87.00;;;;;;4988655;28;20042;-79
2022/02/27 11:20:41;;;;;;;3.47;1.55;;;12.00;86.10;;;;;;4987506;28;20602;-77
2022/02/27 11:23:10;;;;;;;3.95;2.28;;;11.80;84.90;;;;;;4999723;28;20137;-83
2022/02/27 11:25:38;;;;;;;2.90;1.60;;;11.70;84.70;;;;;;4985441;28;20469;-80
2022/02/27 11:28:09;;;;;;;4.03;1.40;;;11.40;84.00;;;;;;5002297;28;20502;-77
2022/02/27 11:30:39;;;;;;;2.58;1.20;;;11.50;85.00;;;;;;4985829;28;20136;-78
2022/02/27 11:33:13;;;;;;;5.22;1.98;;;11.60;85.80;;;;;;4986658;28;20155;-77
2022/02/27 11:35:44;;;;;;;3.22;1.10;;;11.50;86.30;;;;;;5000106;28;20081;-77
2022/02/27 11:38:17;;;;;;;3.00;1.65;;;11.30;86.40;;;;;;4985413;28;20041;-77
2022/02/27 11:40:56;;;;;;;1.92;1.30;;;11.30;86.40;;;;;;5000207;28;20507;-77
2022/02/27 11:43:40;;;;;;;2.80;1.00;;;11.20;86.60;;;;;;4985380;28;20092;-77
2022/02/27 11:46:09;;;;;;;2.85;0.82;;;11.20;87.40;;;;;;4983309;28;20050;-77
2022/02/27 11:49:02;;;;;;;1.92;0.90;;;11.20;88.10;;;;;;4999058;28;20512;-77
2022/02/27 11:51:59;;;;;;;3.30;1.75;;;11.20;88.20;;;;;;4983980;28;20464;-77
2022/02/27 11:54:40;;;;;;;3.08;1.38;;;11.30;88.60;;;;;;4997608;28;20034;-77
2022/02/27 11:57:17;;;;;;;3.53;1.17;;;11.30;88.40;;;;;;4996339;28;20125;-77
2022/02/27 11:59:57;;;;;;;1.95;0.90;;;11.40;88.60;;;;;;4985379;28;20057;-77
2022/02/27 12:02:43;;;;;;;2.35;1.30;;;11.40;88.80;;;;;;4985274;28;20577;-77
2022/02/27 12:05:15;;;;;;;4.80;1.10;;;11.50;89.10;;;;;;4999181;28;20093;-78
2022/02/27 12:08:10;;;;;;;3.63;1.40;;;11.70;89.20;;;;;;4983291;28;20054;-78
2022/02/27 12:10:42;;;;;;;3.08;1.60;;;11.60;88.00;;;;;;4994878;28;20034;-78
2022/02/27 12:13:25;;;;;;;2.97;1.38;;;11.40;87.50;;;;;;4983454;28;20129;-78
2022/02/27 12:16:05;;;;;;;2.72;1.30;;;11.30;87.50;;;;;;4982527;28;20050;-78
2022/02/27 12:18:51;;;;;;;1.88;1.20;;;11.30;87.80;;;;;;4985777;28;20419;-78
2022/02/27 12:21:33;;;;;;;1.92;0.90;;;11.20;87.10;;;;;;4998195;28;20121;-78
2022/02/27 12:24:11;;;;;;;1.30;0.95;;;11.10;87.30;;;;;;4982902;28;20077;-78
2022/02/27 12:26:47;;;;;;;3.42;1.20;;;11.00;87.10;;;;;;4997320;28;20050;-77
2022/02/27 12:29:24;;;;;;;3.58;1.23;;;10.90;86.90;;;;;;4996545;28;20393;-77
2022/02/27 12:31:53;;;;;;;2.40;1.15;;;11.00;87.40;;;;;;4979469;28;20660;-77
2022/02/27 12:34:23;;;;;;;2.85;1.08;;;11.00;87.80;;;;;;4998597;28;20129;-77
2022/02/27 12:37:00;;;;;;;1.65;1.00;;;11.10;87.10;;;;;;4986497;28;20135;-77
2022/02/27 12:39:31;;;;;;;3.60;1.17;;;11.20;86.90;;;;;;4987140;28;20066;-78
2022/02/27 12:42:00;;;;;;;1.98;1.20;;;11.10;86.30;;;;;;4989051;28;20057;-78
2022/02/27 12:44:31;;;;;;;1.65;1.20;;;11.00;86.80;;;;;;4989603;28;20039;-77
2022/02/27 12:47:00;;;;;;;1.25;0.77;;;10.90;87.60;;;;;;4982882;28;20105;-78
2022/02/27 12:52:24;;;;;;;2.63;1.40;;;10.90;88.70;;;;;;4986155;28;20528;-77
2022/02/27 12:54:54;;;;;;;2.53;1.63;;;10.90;88.90;;;;;;4986951;28;20045;-78
2022/02/27 12:57:24;;;;;;;3.10;2.00;;;11.00;88.70;;;;;;4966028;28;20058;-78
2022/02/27 12:59:52;;;;;;;2.28;1.30;;;11.00;88.60;;;;;;4986345;28;20354;-78
2022/02/27 13:02:22;;;;;;;4.32;1.95;;;11.00;87.40;;;;;;4983745;28;20027;-78
2022/02/27 13:04:56;;;;;;;2.72;1.73;;;11.10;87.30;;;;;;4986488;28;20684;-77
2022/02/27 13:07:27;;;;;;;1.92;1.42;;;11.20;87.30;;;;;;4983237;28;20058;-77
2022/02/27 13:09:57;;;;;;;2.83;1.70;;;11.30;87.00;;;;;;4986203;28;20520;-77
2022/02/27 13:12:31;;;;;;;2.45;1.40;;;11.60;87.10;;;;;;4986882;28;20101;-77